createdAt,value
2022-12-06T00:01:28.782Z,102376.02
2022-12-06T00:04:00.755Z,102378.91
2022-12-06T00:06:31.393Z,102374.67
2022-12-06T00:09:00.202Z,102378.11
2022-12-06T00:11:33.298Z,102373.02
2022-12-06T00:14:07.139Z,102370.29
2022-12-06T00:16:35.558Z,102371.49
2022-12-06T00:19:04.340Z,102365.35
2022-12-06T00:21:37.431Z,102365.70
2022-12-06T00:24:07.616Z,102363.83
2022-12-06T00:26:40.400Z,102361.63
2022-12-06T00:29:11.112Z,102357.90
2022-12-06T00:31:38.823Z,102355.23
2022-12-06T00:34:06.454Z,102352.69
2022-12-06T00:36:37.855Z,102349.44
2022-12-06T00:39:09.192Z,102348.38
2022-12-06T00:41:36.945Z,102347.67
2022-12-06T00:44:05.888Z,102342.73
2022-12-06T00:46:34.785Z,102342.21
2022-12-06T00:49:04.683Z,102341.72
2022-12-06T00:51:34.791Z,102345.98
2022-12-06T00:54:03.030Z,102343.77
2022-12-06T00:56:31.851Z,102340.70
2022-12-06T00:58:59.667Z,102337.46
2022-12-06T01:01:30.497Z,102336.97
2022-12-06T01:04:01.119Z,102336.14
2022-12-06T01:06:32.246Z,102333.25
2022-12-06T01:09:06.621Z,102329.14
2022-12-06T01:11:34.962Z,102327.27
2022-12-06T01:14:03.121Z,102324.09
2022-12-06T01:16:31.884Z,102319.32
2022-12-06T01:19:02.349Z,102316.96
2022-12-06T01:21:30.111Z,102313.38
2022-12-06T01:23:57.790Z,102309.30
2022-12-06T01:26:29.854Z,102301.46
2022-12-06T01:28:59.166Z,102298.21
2022-12-06T01:31:35.515Z,102290.05
2022-12-06T01:34:09.559Z,102285.62
2022-12-06T01:36:37.038Z,102280.53
2022-12-06T01:39:07.781Z,102281.92
2022-12-06T01:41:37.012Z,102282.80
2022-12-06T01:44:05.556Z,102278.54
2022-12-06T01:46:41.336Z,102280.21
2022-12-06T01:49:20.759Z,102283.60
2022-12-06T01:51:58.795Z,102282.39
2022-12-06T01:54:26.839Z,102286.13
2022-12-06T01:56:55.437Z,102279.83
2022-12-06T01:59:23.574Z,102277.27
2022-12-06T02:01:51.418Z,102277.92
2022-12-06T02:04:19.268Z,102275.67
2022-12-06T02:06:47.499Z,102270.20
2022-12-06T02:09:16.189Z,102270.52
2022-12-06T02:11:43.808Z,102269.50
2022-12-06T02:14:15.773Z,102271.05
2022-12-06T02:17:03.849Z,102271.40
2022-12-06T02:19:37.129Z,102266.98
2022-12-06T02:22:23.001Z,102264.73
2022-12-06T02:25:17.366Z,102260.82
2022-12-06T02:28:34.323Z,102259.41
2022-12-06T02:31:07.723Z,102256.13
2022-12-06T02:33:42.514Z,102253.40
2022-12-06T02:36:23.153Z,102252.73
2022-12-06T02:38:59.363Z,102254.30
2022-12-06T02:42:01.210Z,102254.96
2022-12-06T02:44:54.318Z,102255.45
2022-12-06T02:47:27.068Z,102253.88
2022-12-06T02:49:57.265Z,102247.02
2022-12-06T02:52:26.825Z,102245.80
2022-12-06T02:54:57.450Z,102243.56
2022-12-06T02:57:39.737Z,102243.09
2022-12-06T03:00:35.271Z,102239.02
2022-12-06T03:03:59.242Z,102238.30
2022-12-06T03:06:46.634Z,102231.30
2022-12-06T03:09:22.650Z,102232.32
2022-12-06T03:12:34.941Z,102232.86
2022-12-06T03:15:35.973Z,102232.77
2022-12-06T03:18:48.098Z,102229.36
2022-12-06T03:21:39.052Z,102225.75
2022-12-06T03:24:10.424Z,102223.98
2022-12-06T03:26:37.880Z,102220.91
2022-12-06T03:29:09.365Z,102220.38
2022-12-06T03:31:39.399Z,102216.99
2022-12-06T03:34:17.238Z,102218.25
2022-12-06T03:36:46.670Z,102217.40
2022-12-06T03:39:22.073Z,102214.09
2022-12-06T03:41:55.365Z,102213.85
2022-12-06T03:44:23.875Z,102210.21
2022-12-06T03:46:58.900Z,102209.05
2022-12-06T03:49:35.417Z,102207.04
2022-12-06T03:52:03.756Z,102208.91
2022-12-06T03:54:31.455Z,102210.10
2022-12-06T03:56:59.066Z,102209.02
2022-12-06T03:59:26.979Z,102199.79
2022-12-06T04:01:54.868Z,102194.33
2022-12-06T04:04:24.289Z,102194.48
2022-12-06T04:06:53.842Z,102189.04
2022-12-06T04:09:40.280Z,102189.75
2022-12-06T04:12:28.043Z,102188.48
2022-12-06T04:14:55.902Z,102193.77
2022-12-06T04:17:42.392Z,102190.48
2022-12-06T04:20:10.497Z,102190.08
2022-12-06T04:22:56.828Z,102192.12
2022-12-06T04:25:25.142Z,102190.08
2022-12-06T04:28:11.667Z,102188.73
2022-12-06T04:30:58.207Z,102189.35
2022-12-06T04:33:44.791Z,102183.54
2022-12-06T04:36:31.502Z,102177.55
2022-12-06T04:38:59.881Z,102175.16
2022-12-06T04:41:46.966Z,102174.85
2022-12-06T04:44:14.767Z,102183.21
2022-12-06T04:46:42.787Z,102181.05
2022-12-06T04:49:10.552Z,102179.71
2022-12-06T04:51:39.457Z,102180.92
2022-12-06T04:54:07.230Z,102178.36
2022-12-06T04:56:34.961Z,102180.23
2022-12-06T04:59:03.689Z,102178.34
2022-12-06T05:01:31.788Z,102173.54
2022-12-06T05:03:59.712Z,102176.97
2022-12-06T05:06:28.766Z,102170.81
2022-12-06T05:08:58.739Z,102170.09
2022-12-06T05:11:38.576Z,102165.80
2022-12-06T05:14:28.139Z,102167.30
2022-12-06T05:17:28.685Z,102160.32
2022-12-06T05:21:17.158Z,102156.73
2022-12-06T05:23:51.330Z,102153.83
2022-12-06T05:26:39.634Z,102150.55
2022-12-06T05:29:08.061Z,102149.14
2022-12-06T05:31:36.090Z,102147.60
2022-12-06T05:34:17.870Z,102151.04
2022-12-06T05:36:58.876Z,102138.45
2022-12-06T05:39:26.763Z,102149.73
2022-12-06T05:41:54.824Z,102148.84
2022-12-06T05:44:23.109Z,102146.41
2022-12-06T05:46:54.287Z,102146.88
2022-12-06T05:49:21.969Z,102150.09
2022-12-06T05:51:51.121Z,102153.70
2022-12-06T05:55:14.396Z,102157.95
2022-12-06T05:58:09.431Z,102157.88
2022-12-06T06:02:35.252Z,102164.15
2022-12-06T06:05:05.877Z,102162.10
2022-12-06T06:10:37.856Z,102160.84
2022-12-06T06:13:12.268Z,102154.84
2022-12-06T06:15:57.042Z,102156.81
2022-12-06T06:18:26.513Z,102150.85
2022-12-06T06:21:29.737Z,102151.65
2022-12-06T06:24:08.832Z,102149.33
2022-12-06T06:26:38.966Z,102155.27
2022-12-06T06:29:12.411Z,102155.91
2022-12-06T06:35:44.637Z,102153.92
2022-12-06T06:38:23.467Z,102150.84
2022-12-06T06:41:31.054Z,102147.09
2022-12-06T06:45:09.442Z,102135.59
2022-12-06T06:48:10.218Z,102136.71
2022-12-06T06:51:31.946Z,102135.45
2022-12-06T07:01:46.594Z,102123.95
2022-12-06T07:07:41.005Z,102121.06
2022-12-06T07:11:00.703Z,102121.73
2022-12-06T07:14:27.435Z,102115.61
2022-12-06T07:22:11.649Z,102109.41
2022-12-06T14:37:27.409Z,101678.12
2022-12-06T14:40:43.851Z,101674.57
2022-12-06T14:43:26.657Z,101676.42
2022-12-06T14:46:29.984Z,101676.05
2022-12-06T14:49:41.572Z,101676.45
2022-12-06T14:53:11.106Z,101679.72
2022-12-06T14:56:34.014Z,101675.21
2022-12-06T14:59:13.841Z,101671.38
2022-12-06T15:05:57.647Z,101662.34
2022-12-06T15:09:24.645Z,101653.55
2022-12-06T15:13:24.556Z,101649.55
2022-12-06T15:16:30.124Z,101644.58
2022-12-06T15:19:19.299Z,101648.46
2022-12-06T15:22:27.455Z,101649.94
2022-12-06T15:25:23.173Z,101634.34
2022-12-06T15:28:35.586Z,101638.08
2022-12-06T15:31:47.511Z,101636.92
2022-12-06T15:34:34.538Z,101642.48
2022-12-06T15:37:37.440Z,101644.82
2022-12-06T15:40:27.218Z,101637.61
2022-12-06T15:43:35.680Z,101631.57
2022-12-06T15:46:35.278Z,101628.71
2022-12-06T15:49:29.620Z,101627.65
2022-12-06T15:52:25.111Z,101621.50
2022-12-06T15:54:59.381Z,101621.12
2022-12-06T15:57:30.917Z,101623.50
2022-12-06T16:00:04.523Z,101622.19
2022-12-06T16:03:02.092Z,101618.33
2022-12-06T16:05:51.626Z,101622.30
2022-12-06T16:08:40.943Z,101617.95
2022-12-06T16:11:58.098Z,101608.88
2022-12-06T16:18:21.503Z,101600.11
2022-12-06T16:21:00.522Z,101599.85
2022-12-06T16:24:15.050Z,101600.80
2022-12-06T16:26:50.210Z,101600.11
2022-12-06T16:29:28.369Z,101591.06
2022-12-06T16:32:13.265Z,101586.31
2022-12-06T16:35:06.492Z,101585.33
2022-12-06T16:38:42.004Z,101580.94
2022-12-06T17:15:40.217Z,101524.07
2022-12-06T17:18:16.271Z,101520.42
2022-12-06T17:20:51.784Z,101515.73
2022-12-06T17:23:31.978Z,101510.04
2022-12-06T17:26:48.773Z,101509.81
2022-12-06T17:29:28.131Z,101507.15
2022-12-06T17:32:00.788Z,101504.89
2022-12-06T17:34:34.737Z,101504.02
2022-12-06T17:37:06.864Z,101504.45
2022-12-06T17:40:02.709Z,101501.65
2022-12-06T17:43:05.743Z,101498.94
2022-12-06T17:45:56.088Z,101491.01
2022-12-06T17:48:33.538Z,101490.22
2022-12-06T17:51:45.225Z,101480.41
2022-12-06T17:54:50.375Z,101475.52
2022-12-06T18:00:46.084Z,101470.26
2022-12-06T18:03:24.751Z,101467.05
2022-12-06T18:06:07.498Z,101462.94
2022-12-06T18:08:48.403Z,101468.17
2022-12-06T18:11:33.010Z,101467.91
2022-12-06T18:14:03.997Z,101464.21
2022-12-06T18:16:41.411Z,101463.33
2022-12-06T18:19:14.715Z,101456.30
2022-12-06T18:21:46.169Z,101456.41
2022-12-06T18:24:29.198Z,101459.70
2022-12-06T18:27:01.929Z,101451.56
2022-12-06T18:29:38.082Z,101445.19
2022-12-06T18:32:07.407Z,101442.59
2022-12-06T18:34:36.772Z,101440.23
2022-12-06T18:37:09.312Z,101434.39
2022-12-06T18:39:41.953Z,101435.98
2022-12-06T18:42:19.498Z,101433.05
2022-12-06T18:44:53.593Z,101430.39
2022-12-06T18:47:31.685Z,101426.80
2022-12-06T18:50:00.269Z,101425.89
2022-12-06T18:52:29.481Z,101423.58
2022-12-06T18:55:01.304Z,101426.73
2022-12-06T18:57:39.198Z,101426.92
2022-12-06T19:00:13.161Z,101428.40
2022-12-06T19:02:41.038Z,101430.30
2022-12-06T19:05:46.117Z,101426.67
2022-12-06T19:08:15.750Z,101421.86
2022-12-06T19:10:48.927Z,101420.59
2022-12-06T19:13:23.591Z,101413.44
2022-12-06T19:16:09.110Z,101416.61
2022-12-06T19:18:39.096Z,101413.73
2022-12-06T19:21:33.179Z,101411.11
2022-12-06T19:24:01.906Z,101411.67
2022-12-06T19:26:32.437Z,101411.17
2022-12-06T19:29:03.267Z,101413.35
2022-12-06T19:31:32.115Z,101412.13
2022-12-06T19:34:01.939Z,101411.52
2022-12-06T19:36:35.952Z,101418.45
2022-12-06T19:39:06.368Z,101411.66
2022-12-06T19:42:00.018Z,101405.23
2022-12-06T19:44:29.375Z,101394.00
2022-12-06T19:47:07.477Z,101390.33
2022-12-06T19:49:35.758Z,101385.41
2022-12-06T19:52:06.861Z,101385.16
2022-12-06T19:54:38.073Z,101379.09
2022-12-06T19:57:06.073Z,101370.11
2022-12-06T19:59:47.338Z,101360.45
2022-12-06T20:02:15.135Z,101355.67
2022-12-06T20:04:49.731Z,101353.08
2022-12-06T20:07:32.910Z,101344.15
2022-12-06T20:10:02.530Z,101343.09
2022-12-06T20:12:30.545Z,101335.00
2022-12-06T20:14:58.380Z,101336.39
2022-12-06T20:17:25.979Z,101330.41
2022-12-06T20:19:53.580Z,101331.95
2022-12-06T20:22:22.347Z,101330.98
2022-12-06T20:24:50.066Z,101329.17
2022-12-06T20:27:17.677Z,101320.33
2022-12-06T20:29:45.767Z,101305.46
2022-12-06T20:32:18.057Z,101294.52
2022-12-06T20:34:50.859Z,101301.53
2022-12-06T20:37:23.339Z,101314.27
2022-12-06T20:39:51.329Z,101318.44
2022-12-06T20:42:19.923Z,101307.41
2022-12-06T20:44:47.449Z,101296.14
2022-12-06T20:47:15.870Z,101288.94
2022-12-06T20:49:44.045Z,101294.38
2022-12-06T20:52:11.833Z,101286.58
2022-12-06T20:54:43.543Z,101280.27
2022-12-06T20:57:11.208Z,101292.06
2022-12-06T20:59:39.520Z,101302.27
2022-12-06T21:02:14.351Z,101301.58
2022-12-06T21:04:43.329Z,101300.37
2022-12-06T21:07:12.591Z,101293.23
2022-12-06T21:09:43.265Z,101287.02
2022-12-06T21:12:11.091Z,101291.94
2022-12-06T21:14:38.640Z,101287.50
2022-12-06T21:17:06.104Z,101281.71
2022-12-06T21:19:37.293Z,101277.11
2022-12-06T21:22:07.880Z,101271.09
2022-12-06T21:24:35.519Z,101256.58
2022-12-06T21:27:03.421Z,101246.09
2022-12-06T21:29:32.265Z,101240.50
2022-12-06T21:32:01.651Z,101240.33
2022-12-06T21:34:29.789Z,101242.27
2022-12-06T21:36:57.715Z,101244.89
2022-12-06T21:39:25.927Z,101242.00
2022-12-06T21:41:54.217Z,101240.21
2022-12-06T21:44:23.673Z,101238.60
2022-12-06T21:46:54.063Z,101235.83
2022-12-06T21:49:24.035Z,101230.64
2022-12-06T21:52:00.214Z,101231.60
2022-12-06T21:54:29.986Z,101234.20
2022-12-06T21:56:57.948Z,101235.98
2022-12-06T21:59:26.245Z,101229.72
2022-12-06T22:01:54.416Z,101231.58
2022-12-06T22:04:21.631Z,101230.23
2022-12-06T22:06:49.026Z,101229.86
2022-12-06T22:09:16.870Z,101224.92
2022-12-06T22:11:47.624Z,101225.06
2022-12-06T22:14:16.078Z,101225.73
2022-12-06T22:16:51.593Z,101223.44
2022-12-06T22:19:21.104Z,101220.77
2022-12-06T22:21:48.522Z,101217.48
2022-12-06T22:24:16.279Z,101212.91
2022-12-06T22:26:44.028Z,101208.83
2022-12-06T22:29:13.453Z,101196.20
2022-12-06T22:31:43.829Z,101201.77
2022-12-06T22:34:12.122Z,101195.11
2022-12-06T22:36:39.543Z,101195.23
2022-12-06T22:39:07.588Z,101204.78
2022-12-06T22:41:35.327Z,101213.38
2022-12-06T22:44:06.907Z,101213.79
2022-12-06T22:46:36.746Z,101214.67
2022-12-06T22:49:06.539Z,101209.40
2022-12-06T22:51:40.187Z,101204.00
2022-12-06T22:54:11.770Z,101209.40
2022-12-06T22:56:46.772Z,101213.92
2022-12-06T22:59:20.772Z,101214.20
2022-12-06T23:01:48.506Z,101219.55
2022-12-06T23:04:16.637Z,101219.66
2022-12-06T23:06:45.526Z,101218.55
2022-12-06T23:09:16.191Z,101207.54
2022-12-06T23:11:43.974Z,101204.51
2022-12-06T23:14:11.834Z,101195.92
2022-12-06T23:16:41.417Z,101189.53
2022-12-06T23:32:37.783Z,101181.21
2022-12-06T23:35:06.920Z,101174.70
2022-12-06T23:37:35.826Z,101168.66
2022-12-06T23:40:06.046Z,101173.98
2022-12-06T23:42:35.261Z,101180.45
2022-12-06T23:45:09.764Z,101185.19
2022-12-06T23:47:43.469Z,101180.33
2022-12-06T23:50:13.697Z,101169.04
2022-12-06T23:52:42.228Z,101168.47
2022-12-06T23:55:11.123Z,101165.65
2022-12-06T23:57:39.957Z,101163.08
